Time;durP1;ratioP1;P1;durP2;ratioP2;P2;SDS_P1;SDS_P2;PMS_P1;PMS_P2;Temp;Humidity;BMP_temperature;BMP_pressure;BME280_temperature;BME280_humidity;BME280_pressure;Samples;Min_cycle;Max_cycle;Signal;HPM_P1;HPM_P2
2022/05/07 00:02:09;;;;;;;8.40;3.17;;;;;;;9.31;34.25;100901.88;4829632;29;20050;-81
2022/05/07 00:04:36;;;;;;;6.22;2.95;;;;;;;9.50;34.32;100930.72;4827173;29;20072;-81
2022/05/07 00:07:04;;;;;;;6.47;2.63;;;;;;;9.67;34.48;100953.44;4827939;29;20053;-81
2022/05/07 00:09:30;;;;;;;7.78;2.72;;;;;;;9.81;34.38;100970.13;4852621;29;20054;-82
2022/05/07 00:11:56;;;;;;;5.18;2.45;;;;;;;9.78;34.38;100972.66;4850858;29;20108;-82
2022/05/07 00:14:22;;;;;;;6.55;3.00;;;;;;;9.84;34.49;100977.91;4863110;29;20114;-81
2022/05/07 00:19:32;;;;;;;4.25;2.70;;;;;;;9.61;34.20;100923.06;4863951;29;20036;-81
2022/05/07 00:21:58;;;;;;;5.07;2.70;;;;;;;9.92;33.85;100980.66;4847293;29;20049;-82
2022/05/07 00:24:24;;;;;;;6.10;2.80;;;;;;;8.65;34.12;100753.84;4850746;29;20045;-82
2022/05/07 00:26:50;;;;;;;5.50;2.78;;;;;;;9.03;34.01;100830.53;4816185;29;20089;-81
2022/05/07 00:29:17;;;;;;;5.05;2.75;;;;;;;9.98;33.95;100970.31;4812404;29;20510;-82
2022/05/07 00:31:43;;;;;;;5.30;2.72;;;;;;;9.74;34.07;100929.28;4826137;29;20053;-81
2022/05/07 00:34:09;;;;;;;6.70;3.03;;;;;;;9.84;33.77;100948.47;4826567;29;20042;-82
2022/05/07 00:36:35;;;;;;;5.95;2.75;;;;;;;9.54;33.79;100906.53;4826404;29;20053;-81
2022/05/07 00:39:02;;;;;;;3.65;2.33;;;;;;;9.89;34.21;100978.88;4842859;29;20046;-81
2022/05/07 00:41:28;;;;;;;5.88;2.90;;;;;;;9.23;34.14;100879.25;4842674;29;20426;-82
2022/05/07 00:43:54;;;;;;;7.95;2.40;;;;;;;9.26;33.83;100871.50;4826531;29;20054;-80
2022/05/07 00:46:25;;;;;;;5.88;2.92;;;;;;;9.76;34.00;100967.44;4811353;29;20050;-82
2022/05/07 00:48:53;;;;;;;3.50;2.53;;;;;;;9.75;34.19;100976.06;4811370;29;20122;-81
2022/05/07 00:51:35;;;;;;;5.88;3.10;;;;;;;9.72;34.13;100970.84;4826584;29;20136;-81
2022/05/07 00:54:07;;;;;;;6.40;2.90;;;;;;;9.52;34.12;100944.59;4811355;29;20061;-82
2022/05/07 00:56:36;;;;;;;9.30;2.90;;;;;;;9.00;34.23;100865.06;4810695;29;20132;-83
2022/05/07 00:59:03;;;;;;;6.43;2.67;;;;;;;9.27;34.43;100922.59;4811612;29;20178;-80
2022/05/07 01:01:30;;;;;;;6.88;2.70;;;;;;;8.80;34.27;100866.50;4826767;29;20040;-82
2022/05/07 01:03:56;;;;;;;5.65;2.97;;;;;;;9.36;34.25;100968.63;4849944;29;20043;-82
2022/05/07 01:06:26;;;;;;;7.68;2.90;;;;;;;9.42;34.61;100969.56;4837591;29;20057;-82
2022/05/07 01:08:51;;;;;;;8.18;3.33;;;;;;;9.21;34.55;100940.69;4842366;29;20045;-83
2022/05/07 01:11:19;;;;;;;6.85;3.17;;;;;;;8.81;34.44;100879.53;4809904;29;20048;-82
2022/05/07 01:13:47;;;;;;;7.53;3.22;;;;;;;8.94;34.65;100903.06;4795701;29;20042;-82
2022/05/07 01:16:14;;;;;;;6.97;2.72;;;;;;;9.17;34.86;100950.13;4825881;29;20050;-81
2022/05/07 01:18:42;;;;;;;6.50;2.90;;;;;;;9.08;34.68;100943.09;4828189;29;20095;-82
2022/05/07 01:21:14;;;;;;;5.57;3.17;;;;;;;8.96;34.74;100915.19;4813023;29;20042;-83
2022/05/07 01:23:43;;;;;;;11.00;3.38;;;;;;;9.25;34.80;100965.88;4825371;29;20057;-81
2022/05/07 01:26:10;;;;;;;4.55;2.92;;;;;;;8.92;34.78;100913.44;4809833;29;20065;-82
2022/05/07 01:28:40;;;;;;;5.13;3.03;;;;;;;9.23;34.86;100968.41;4796505;29;20042;-82
2022/05/07 01:31:08;;;;;;;6.82;3.17;;;;;;;8.39;34.75;100826.03;4795506;29;20041;-82
2022/05/07 01:33:34;;;;;;;6.57;2.92;;;;;;;9.27;34.79;100974.56;4810306;29;20048;-82
2022/05/07 01:36:06;;;;;;;5.88;3.08;;;;;;;9.14;34.95;100953.56;4810057;29;20046;-83
2022/05/07 01:38:34;;;;;;;6.55;2.88;;;;;;;9.31;34.62;100974.63;4824968;29;20106;-82
2022/05/07 01:41:00;;;;;;;10.18;3.10;;;;;;;9.34;34.86;100979.84;4824795;29;20128;-83
2022/05/07 01:43:28;;;;;;;8.57;2.50;;;;;;;9.12;34.76;100920.66;4824577;29;20060;-83
2022/05/07 01:45:56;;;;;;;5.18;2.95;;;;;;;9.40;34.75;100970.38;4809733;29;20045;-83
2022/05/07 01:48:23;;;;;;;6.40;2.72;;;;;;;8.82;34.85;100870.88;4794695;29;20049;-82
2022/05/07 01:50:56;;;;;;;7.45;3.10;;;;;;;9.07;34.54;100923.16;4809392;29;20049;-83
2022/05/07 01:53:30;;;;;;;6.93;2.42;;;;;;;8.89;34.83;100897.81;4808868;29;20152;-81
2022/05/07 01:55:57;;;;;;;4.28;2.55;;;;;;;9.12;34.67;100912.88;4809287;29;20128;-82
2022/05/07 01:58:32;;;;;;;5.63;2.65;;;;;;;8.95;34.95;100886.63;4809786;29;20549;-81
2022/05/07 02:01:02;;;;;;;6.43;2.70;;;;;;;9.51;34.59;100971.44;4825169;29;20057;-82
2022/05/07 02:03:28;;;;;;;9.65;2.70;;;;;;;9.56;34.94;100971.50;4824970;29;20042;-84
2022/05/07 02:05:56;;;;;;;5.65;2.60;;;;;;;9.59;34.64;100967.22;4809676;29;20193;-82
2022/05/07 02:08:22;;;;;;;9.10;3.13;;;;;;;9.42;34.84;100932.31;4809281;29;20034;-83
2022/05/07 02:10:48;;;;;;;5.63;2.53;;;;;;;8.79;34.77;100824.13;4809102;29;20056;-82
2022/05/07 02:13:15;;;;;;;8.75;3.08;;;;;;;9.29;34.88;100898.38;4824152;29;20077;-82
2022/05/07 02:15:43;;;;;;;10.05;2.50;;;;;;;8.86;34.92;100820.75;4840692;29;20529;-81
2022/05/07 02:18:11;;;;;;;5.18;3.00;;;;;;;8.77;34.83;100817.16;4824084;29;20042;-81
2022/05/07 02:20:37;;;;;;;7.38;2.95;;;;;;;9.76;34.96;100967.44;4840813;29;20049;-82
2022/05/07 02:23:03;;;;;;;8.98;2.88;;;;;;;9.48;34.17;100909.03;4808908;29;20065;-83
2022/05/07 02:25:29;;;;;;;7.97;2.45;;;;;;;9.03;34.74;100825.31;4840889;29;20132;-81
2022/05/07 02:27:59;;;;;;;7.00;2.58;;;;;;;9.31;34.55;100862.91;4823917;29;20118;-82
2022/05/07 02:30:26;;;;;;;5.32;2.50;;;;;;;9.87;34.58;100948.50;4824747;29;20049;-81
2022/05/07 02:32:55;;;;;;;6.75;2.60;;;;;;;10.14;34.49;100981.75;4809529;29;20042;-83
2022/05/07 02:35:25;;;;;;;5.72;2.92;;;;;;;9.57;34.31;100890.97;4796029;29;20575;-81
2022/05/07 02:38:00;;;;;;;4.72;2.13;;;;;;;10.12;34.21;100978.28;4827519;29;20087;-82
2022/05/07 02:40:27;;;;;;;5.82;2.60;;;;;;;9.42;34.16;100860.47;4848521;29;20054;-83
2022/05/07 02:42:55;;;;;;;6.53;2.80;;;;;;;9.18;34.27;100811.66;4821745;29;20045;-81
2022/05/07 02:45:22;;;;;;;6.35;2.97;;;;;;;8.58;34.32;100713.09;4810566;29;20045;-81
2022/05/07 02:47:52;;;;;;;4.13;2.47;;;;;;;10.18;34.04;101001.75;4809332;29;20057;-82
2022/05/07 02:50:20;;;;;;;6.40;2.70;;;;;;;10.17;34.01;101010.41;4825363;29;20049;-82
2022/05/07 02:52:47;;;;;;;9.18;2.70;;;;;;;9.82;34.10;100948.44;4808709;29;20102;-82
2022/05/07 02:55:13;;;;;;;5.50;3.08;;;;;;;9.52;34.10;100881.34;4808860;29;20188;-82
2022/05/07 02:57:44;;;;;;;11.60;2.72;;;;;;;9.67;34.20;100909.25;4809178;29;20049;-81
2022/05/07 03:00:10;;;;;;;7.50;3.22;;;;;;;10.24;33.88;101008.75;4823975;29;20053;-83
2022/05/07 03:02:39;;;;;;;7.40;2.70;;;;;;;10.24;34.15;100991.44;4811685;29;20111;-83
2022/05/07 03:05:06;;;;;;;5.10;2.53;;;;;;;9.82;34.00;100912.03;4813023;29;20616;-81
2022/05/07 03:07:35;;;;;;;7.07;2.50;;;;;;;9.47;33.93;100839.72;4817997;29;20117;-82
2022/05/07 03:10:11;;;;;;;8.18;2.80;;;;;;;9.68;33.76;100905.81;4815428;29;20510;-82
2022/05/07 03:12:39;;;;;;;6.45;2.67;;;;;;;9.47;33.96;100845.81;4812353;29;20159;-81
2022/05/07 03:15:06;;;;;;;4.97;2.47;;;;;;;10.52;33.81;100996.94;4827416;29;20229;-82
2022/05/07 03:17:34;;;;;;;6.80;2.83;;;;;;;10.67;33.71;100995.38;4812373;29;20590;-81
2022/05/07 03:20:06;;;;;;;9.23;3.15;;;;;;;10.52;33.75;100950.09;4827723;29;20104;-81
2022/05/07 03:22:32;;;;;;;7.60;2.85;;;;;;;10.46;33.41;100892.81;4798024;29;20049;-82
2022/05/07 03:24:58;;;;;;;8.40;3.10;;;;;;;10.78;33.36;100904.38;4839655;29;20057;-82
2022/05/07 03:27:32;;;;;;;5.93;3.08;;;;;;;11.44;33.27;101003.81;4844710;29;20208;-81
2022/05/07 03:29:58;;;;;;;6.07;2.50;;;;;;;10.65;33.00;100835.72;4819242;29;20095;-82
2022/05/07 03:32:24;;;;;;;6.93;2.40;;;;;;;10.88;32.72;100851.47;4826492;29;20116;-82
2022/05/07 03:34:56;;;;;;;8.70;3.80;;;;;;;11.87;32.53;100991.88;4811627;29;20046;-82
2022/05/07 03:37:22;;;;;;;5.88;3.03;;;;;;;11.57;32.27;100942.22;4828622;29;20038;-85
2022/05/07 03:39:50;;;;;;;5.20;2.70;;;;;;;11.74;31.88;100951.84;4813365;29;20045;-85
2022/05/07 03:42:20;;;;;;;9.43;2.80;;;;;;;12.10;31.97;100992.03;4811271;29;20093;-83
2022/05/07 03:44:47;;;;;;;5.00;2.33;;;;;;;11.98;31.95;100958.91;4828889;29;20050;-85
2022/05/07 03:47:13;;;;;;;6.20;2.60;;;;;;;11.59;31.82;100890.06;4826300;29;20044;-81
2022/05/07 03:49:42;;;;;;;5.57;2.88;;;;;;;12.34;31.75;101001.69;4826464;29;20045;-82
2022/05/07 03:54:53;;;;;;;3.28;2.25;;;;;;;11.90;31.24;100913.66;4827759;29;20411;-81
2022/05/07 03:57:19;;;;;;;6.45;2.38;;;;;;;12.29;31.55;100952.94;4817257;29;20041;-82
2022/05/07 03:59:48;;;;;;;7.63;2.95;;;;;;;12.23;31.61;100925.09;4831931;29;20054;-82
2022/05/07 04:02:15;;;;;;;6.00;2.50;;;;;;;11.83;31.32;100846.69;4798200;29;20050;-82
2022/05/07 04:04:51;;;;;;;5.28;2.50;;;;;;;12.03;31.32;100881.56;4814097;29;20052;-83
2022/05/07 04:07:18;;;;;;;7.43;2.63;;;;;;;12.20;30.92;100907.69;4816575;29;20075;-83
2022/05/07 04:09:54;;;;;;;8.80;2.72;;;;;;;12.21;31.12;100919.00;4812660;29;20052;-82
2022/05/07 04:12:23;;;;;;;4.75;2.70;;;;;;;12.01;31.15;100852.00;4828714;29;20438;-81
2022/05/07 04:14:49;;;;;;;7.95;2.38;;;;;;;12.35;31.02;100896.41;4849713;29;20148;-82
2022/05/07 04:17:17;;;;;;;4.57;2.35;;;;;;;12.32;30.97;100893.78;4835499;29;20045;-81
2022/05/07 04:19:43;;;;;;;2.95;2.28;;;;;;;12.69;30.85;100953.00;4829797;29;20042;-82
2022/05/07 04:22:09;;;;;;;5.82;2.72;;;;;;;12.64;30.93;100946.91;4826775;29;20242;-82
2022/05/07 04:24:43;;;;;;;4.70;2.60;;;;;;;12.64;30.79;100903.41;4825786;29;20514;-81
2022/05/07 04:27:10;;;;;;;5.63;2.55;;;;;;;12.63;30.68;100887.72;4811907;29;20049;-82
2022/05/07 04:29:37;;;;;;;6.80;2.53;;;;;;;13.01;30.61;100928.63;4811476;29;20105;-81
2022/05/07 04:32:10;;;;;;;7.60;2.47;;;;;;;13.37;30.55;100937.28;4812107;29;20132;-81
2022/05/07 04:34:36;;;;;;;5.35;2.67;;;;;;;13.14;30.35;100876.34;4812033;29;20045;-82
2022/05/07 04:37:06;;;;;;;5.63;2.80;;;;;;;13.78;29.96;100939.78;4827636;29;20046;-82
2022/05/07 04:39:34;;;;;;;6.45;2.78;;;;;;;14.38;29.80;100981.38;4825474;29;20137;-82
2022/05/07 04:42:06;;;;;;;4.50;2.60;;;;;;;14.35;29.61;100900.22;4811037;29;20050;-82
2022/05/07 04:44:38;;;;;;;4.35;2.60;;;;;;;14.70;29.36;100904.34;4825665;29;20053;-83
2022/05/07 04:47:09;;;;;;;8.02;2.83;;;;;;;15.23;28.86;100901.25;4825878;29;20482;-83
2022/05/07 04:49:36;;;;;;;9.45;2.70;;;;;;;15.47;28.44;100863.38;4825783;29;20072;-82
2022/05/07 04:52:05;;;;;;;4.80;2.30;;;;;;;16.62;27.63;100955.47;4810408;29;20061;-83
2022/05/07 04:54:33;;;;;;;12.18;2.92;;;;;;;17.11;27.31;100951.19;4825266;29;20072;-82
2022/05/07 04:57:02;;;;;;;5.32;3.00;;;;;;;16.73;26.92;100853.66;4824968;29;20118;-83
2022/05/07 04:59:39;;;;;;;3.97;2.60;;;;;;;16.31;26.36;100745.84;4795738;29;20038;-84
2022/05/07 05:02:09;;;;;;;4.07;2.70;;;;;;;16.41;25.86;100771.06;4811493;29;20049;-82
2022/05/07 05:04:36;;;;;;;3.47;2.53;;;;;;;16.42;26.17;100802.53;4825675;29;20079;-81
2022/05/07 05:07:07;;;;;;;5.72;2.92;;;;;;;16.77;25.68;100902.66;4795755;29;20067;-82
2022/05/07 05:09:36;;;;;;;5.25;3.17;;;;;;;16.60;26.03;100891.56;4825429;29;20050;-82
2022/05/07 05:12:11;;;;;;;6.55;2.75;;;;;;;16.46;26.01;100832.22;4796018;29;20046;-84
2022/05/07 05:15:05;;;;;;;5.95;2.63;;;;;;;17.24;25.44;100883.44;4825576;29;20242;-81
2022/05/07 05:17:48;;;;;;;5.70;2.75;;;;;;;17.59;24.90;100908.19;4825580;29;20424;-83
2022/05/07 05:20:20;;;;;;;5.78;2.63;;;;;;;17.36;24.91;100887.59;4810719;29;20160;-81
2022/05/07 05:23:35;;;;;;;4.72;2.38;;;;;;;17.61;24.81;100956.38;4822327;29;20046;-82
2022/05/07 05:26:03;;;;;;;5.40;2.40;;;;;;;17.26;25.02;100914.06;4795443;29;20069;-82
2022/05/07 05:28:47;;;;;;;6.10;2.50;;;;;;;17.55;24.70;100819.66;4799357;29;20073;-83
2022/05/07 05:31:14;;;;;;;4.15;2.50;;;;;;;19.19;24.31;100847.31;4814517;29;20099;-82
2022/05/07 05:33:45;;;;;;;6.10;2.92;;;;;;;21.48;22.86;100891.09;4811445;29;20046;-82
2022/05/07 05:36:17;;;;;;;4.28;2.50;;;;;;;23.38;21.43;100911.72;4811982;29;20046;-82
2022/05/07 05:38:46;;;;;;;9.07;2.80;;;;;;;24.89;20.33;100923.22;4810952;29;20561;-81
2022/05/07 05:41:15;;;;;;;9.00;2.88;;;;;;;26.22;18.81;100886.81;4811756;29;20133;-81
2022/05/07 05:43:45;;;;;;;7.70;2.88;;;;;;;27.19;17.45;100864.16;4826037;29;20136;-81
2022/05/07 05:46:14;;;;;;;7.03;2.95;;;;;;;27.55;17.04;100907.38;4826093;29;20102;-81
2022/05/07 05:48:42;;;;;;;5.32;3.00;;;;;;;27.55;16.29;100920.75;4833617;29;20041;-80
2022/05/07 05:51:08;;;;;;;5.38;3.15;;;;;;;28.32;16.35;100896.25;4833995;29;20106;-81
2022/05/07 05:53:39;;;;;;;;;;;;;;;29.10;15.27;100920.50;4834569;29;20046;-81
2022/05/07 05:56:06;;;;;;;11.57;3.17;;;;;;;29.65;15.51;100915.78;4830863;29;19920;-82
2022/05/07 05:58:39;;;;;;;6.18;2.65;;;;;;;30.25;14.72;100816.63;4830144;29;20140;-82
2022/05/07 06:01:09;;;;;;;6.40;2.65;;;;;;;31.38;13.84;100850.00;4829904;29;20744;-82
2022/05/07 06:03:46;;;;;;;7.43;2.60;;;;;;;32.19;12.88;100897.28;4813388;29;20137;-82
2022/05/07 06:06:16;;;;;;;12.15;2.58;;;;;;;32.49;12.54;100855.31;4826494;29;20045;-82
2022/05/07 06:08:42;;;;;;;6.35;2.72;;;;;;;33.32;12.51;100848.09;4824186;29;20128;-83
2022/05/07 06:11:14;;;;;;;6.40;2.72;;;;;;;34.13;11.71;100818.44;4824916;29;20072;-83
2022/05/07 06:13:43;;;;;;;6.75;2.90;;;;;;;34.83;10.98;100832.53;4825060;29;20045;-82
2022/05/07 06:16:12;;;;;;;8.20;2.47;;;;;;;35.45;10.82;100831.19;4794228;29;20042;-81
2022/05/07 06:18:40;;;;;;;;;;;;;;;36.18;10.47;100907.91;4825470;29;20426;-82
2022/05/07 06:21:08;;;;;;;5.75;2.90;;;;;;;35.71;10.80;100869.16;4825599;29;19988;-81
2022/05/07 06:23:39;;;;;;;8.10;3.00;;;;;;;35.85;9.94;100864.25;4809860;29;20038;-82
2022/05/07 06:28:52;;;;;;;8.45;3.40;;;;;;;36.53;9.47;100911.59;4825277;29;20044;-84
2022/05/07 06:31:29;;;;;;;5.20;3.08;;;;;;;36.45;9.24;100767.94;4809982;29;20046;-84
2022/05/07 06:33:55;;;;;;;8.10;2.78;;;;;;;37.10;9.08;100847.94;4824368;29;20151;-84
2022/05/07 06:36:25;;;;;;;7.10;2.80;;;;;;;36.74;8.89;100826.41;4797561;29;20046;-83
2022/05/07 06:38:59;;;;;;;5.15;2.80;;;;;;;37.65;8.61;100909.06;4829201;29;20098;-85
2022/05/07 06:45:21;;;;;;;4.93;2.70;;;;;;;37.67;8.31;100868.16;4828043;29;20529;-84
2022/05/07 06:47:55;;;;;;;4.15;2.80;;;;;;;38.17;7.89;100879.97;4827811;29;20050;-82
2022/05/07 06:50:25;;;;;;;4.68;2.50;;;;;;;37.42;8.39;100816.50;4829767;29;20046;-81
2022/05/07 06:52:54;;;;;;;5.13;3.05;;;;;;;37.46;8.11;100868.63;4815540;29;20149;-85
2022/05/07 06:55:26;;;;;;;6.78;2.97;;;;;;;37.65;7.75;100849.34;4831934;29;20049;-82
2022/05/07 06:57:55;;;;;;;5.55;2.95;;;;;;;38.13;7.66;100889.47;4817258;29;20128;-82
2022/05/07 07:00:28;;;;;;;4.70;3.00;;;;;;;37.62;7.58;100838.81;4845926;29;20107;-85
2022/05/07 07:02:54;;;;;;;6.50;3.00;;;;;;;36.88;7.89;100904.41;4845152;29;20129;-81
2022/05/07 07:05:25;;;;;;;7.07;2.97;;;;;;;35.69;8.55;100784.56;4847753;29;20109;-84
2022/05/07 07:07:51;;;;;;;5.20;2.50;;;;;;;36.97;7.94;100839.38;4847864;29;20046;-83
2022/05/07 07:10:22;;;;;;;6.32;3.10;;;;;;;37.88;8.09;100904.84;4854097;29;20038;-82
2022/05/07 07:12:51;;;;;;;5.05;2.80;;;;;;;37.87;7.29;100819.84;4822451;29;20048;-81
2022/05/07 07:15:17;;;;;;;7.32;2.72;;;;;;;37.74;7.25;100893.63;4821530;29;20053;-83
2022/05/07 07:17:53;;;;;;;8.20;3.08;;;;;;;36.59;7.81;100824.25;4821636;29;20094;-81
2022/05/07 07:20:22;;;;;;;8.20;3.15;;;;;;;37.19;7.82;100790.00;4837658;29;20041;-84
2022/05/07 07:22:47;;;;;;;7.50;3.10;;;;;;;37.93;7.06;100878.09;4840739;29;20053;-82
2022/05/07 07:25:17;;;;;;;3.55;2.83;;;;;;;37.54;7.42;100893.06;4864742;29;20140;-81
2022/05/07 07:27:43;;;;;;;6.90;3.00;;;;;;;37.70;7.29;100837.97;4836916;29;20022;-83
2022/05/07 07:30:17;;;;;;;7.47;3.10;;;;;;;37.85;7.65;100816.44;4848231;29;20384;-81
2022/05/07 07:32:43;;;;;;;6.80;2.80;;;;;;;37.07;7.34;100788.59;4826468;29;20050;-80
2022/05/07 07:35:13;;;;;;;4.85;2.72;;;;;;;37.23;6.93;100744.41;4827751;29;20057;-82
2022/05/07 07:37:45;;;;;;;;;;;;;;;38.15;7.57;100879.31;4861978;29;20094;-83
2022/05/07 07:40:16;;;;;;;2.65;1.98;;;;;;;37.91;7.44;100777.81;4842730;29;19984;-80
2022/05/07 07:42:45;;;;;;;4.65;2.33;;;;;;;38.51;7.03;100783.00;4839855;29;20042;-83
2022/05/07 07:48:11;;;;;;;6.45;2.75;;;;;;;39.26;6.47;100795.28;4858979;29;20046;-84
2022/05/07 07:50:38;;;;;;;2.75;2.38;;;;;;;37.83;6.78;100789.47;4859331;29;20054;-82
2022/05/07 07:53:08;;;;;;;8.25;2.92;;;;;;;37.30;6.72;100869.38;4839988;29;20066;-83
2022/05/07 07:58:57;;;;;;;5.90;2.30;;;;;;;36.31;6.80;100745.00;5545531;23;20057;-84
2022/05/07 08:01:36;;;;;;;6.60;2.17;;;;;;;36.21;6.62;100807.38;4839728;29;20030;-84
2022/05/07 08:04:04;;;;;;;6.10;2.08;;;;;;;35.93;7.15;100760.59;4807986;29;20061;-83
2022/05/07 08:06:44;;;;;;;5.25;2.63;;;;;;;37.04;6.73;100829.59;4825633;29;20069;-84
2022/05/07 08:12:51;;;;;;;4.07;2.20;;;;;;;38.02;6.03;100830.06;4840857;29;20042;-86
2022/05/07 08:15:23;;;;;;;4.03;2.20;;;;;;;36.11;6.45;100787.66;4828665;29;20030;-85
2022/05/07 08:17:51;;;;;;;8.70;2.50;;;;;;;35.26;7.33;100740.16;4842983;29;20049;-82
2022/05/07 08:20:21;;;;;;;7.40;2.55;;;;;;;35.52;7.32;100732.19;4826822;29;20045;-83
2022/05/07 08:22:47;;;;;;;5.28;2.70;;;;;;;35.65;7.25;100793.16;4857929;29;20045;-83
2022/05/07 08:25:38;;;;;;;61.60;7.47;;;;;;;36.32;6.88;100850.44;4842724;29;20025;-83
2022/05/07 08:28:06;;;;;;;7.22;2.67;;;;;;;35.26;7.05;100757.25;4843399;29;20053;-82
2022/05/07 08:30:32;;;;;;;10.13;2.60;;;;;;;34.28;7.44;100732.47;4859417;29;20526;-82
2022/05/07 08:32:59;;;;;;;8.77;2.55;;;;;;;33.94;8.42;100793.19;4827237;29;20695;-82
2022/05/07 08:35:31;;;;;;;6.65;2.50;;;;;;;33.18;8.32;100789.19;4827620;29;20048;-84
2022/05/07 08:37:57;;;;;;;3.63;3.17;;;;;;;33.19;8.74;100780.94;4842595;29;20046;-81
2022/05/07 08:40:27;;;;;;;3.80;2.58;;;;;;;34.44;8.28;100831.78;4839915;29;20051;-85
2022/05/07 08:43:00;;;;;;;4.15;2.42;;;;;;;34.00;8.06;100699.97;4857211;29;20132;-83
2022/05/07 08:45:40;;;;;;;;;;;;;;;;;;;;;
2022/05/07 08:48:14;;;;;;;8.70;2.53;;;;;;;35.29;7.88;100696.59;4835307;29;20033;-84
2022/05/07 08:50:47;;;;;;;5.05;2.47;;;;;;;35.94;7.62;100822.69;4848664;29;20054;-85
2022/05/07 08:54:10;;;;;;;6.65;2.65;;;;;;;37.11;7.68;100814.38;4848707;29;20054;-84
2022/05/07 08:56:56;;;;;;;6.63;2.55;;;;;;;36.77;7.08;100801.66;4827397;29;20045;-84
2022/05/07 08:59:25;;;;;;;5.18;2.55;;;;;;;34.02;7.92;100682.63;4828293;29;20123;-84
2022/05/07 09:02:02;;;;;;;3.53;2.60;;;;;;;34.54;7.85;100719.19;4832516;29;20050;-85
2022/05/07 09:04:37;;;;;;;4.88;2.22;;;;;;;35.28;7.92;100781.41;4816811;29;20060;-86
2022/05/07 09:08:04;;;;;;;4.20;2.20;;;;;;;33.75;8.03;100670.75;4826615;29;20106;-85
2022/05/07 09:11:09;;;;;;;4.65;2.53;;;;;;;34.67;8.26;100797.19;4819296;29;20054;-83
2022/05/07 09:13:37;;;;;;;5.68;2.38;;;;;;;34.27;8.41;100768.56;4825918;29;20483;-83
2022/05/07 09:16:09;;;;;;;5.03;2.60;;;;;;;34.36;8.15;100813.56;4841940;29;20121;-86
2022/05/07 09:18:48;;;;;;;4.75;2.42;;;;;;;32.71;8.45;100742.06;4811499;29;20069;-79
2022/05/07 09:21:27;;;;;;;5.28;2.20;;;;;;;31.65;9.36;100749.25;4839786;29;20079;-81
2022/05/07 09:23:59;;;;;;;7.70;2.40;;;;;;;32.87;9.02;100765.84;4803413;29;20046;-83
2022/05/07 09:26:37;;;;;;;4.57;2.60;;;;;;;32.49;8.26;100659.59;4828404;29;20043;-78
2022/05/07 09:29:13;;;;;;;2.97;2.30;;;;;;;32.82;8.44;100710.59;4816682;29;20034;-78
2022/05/07 09:31:42;;;;;;;6.63;2.70;;;;;;;32.21;8.61;100650.38;4815144;29;20046;-81
2022/05/07 09:37:41;;;;;;;3.22;2.90;;;;;;;30.57;9.68;100713.09;4816773;29;20141;-81
2022/05/07 09:40:11;;;;;;;;;;;;;;;30.87;9.72;100782.31;4818117;29;20054;-79
2022/05/07 09:42:50;;;;;;;7.32;2.92;;;;;;;30.22;9.43;100679.16;4831358;29;19920;-77
2022/05/07 09:45:28;;;;;;;8.00;3.63;;;;;;;30.32;9.68;100680.13;4829510;29;20046;-79
2022/05/07 09:47:55;;;;;;;5.65;2.92;;;;;;;31.20;9.87;100798.56;4825945;29;20122;-79
2022/05/07 09:50:45;;;;;;;6.13;2.67;;;;;;;31.10;9.58;100771.56;4821650;29;20103;-80
2022/05/07 09:58:57;;;;;;;5.32;2.45;;;;;;;30.72;10.50;100772.81;4806150;29;20055;-80
2022/05/07 10:01:56;;;;;;;3.45;2.67;;;;;;;31.74;10.03;100767.31;4806703;29;20179;-80
2022/05/07 10:04:47;;;;;;;6.15;2.63;;;;;;;30.82;9.98;100778.31;4822990;29;20404;-78
2022/05/07 10:07:37;;;;;;;9.18;3.13;;;;;;;30.14;10.31;100763.75;4806902;29;20046;-78
2022/05/07 10:10:27;;;;;;;4.60;3.22;;;;;;;29.35;10.93;100763.34;4823317;29;20042;-78
2022/05/07 10:12:56;;;;;;;6.45;2.95;;;;;;;28.61;10.93;100751.56;4808045;29;20046;-80
2022/05/07 10:15:44;;;;;;;7.43;3.00;;;;;;;27.93;11.39;100740.94;4821308;29;20050;-79
2022/05/07 10:18:38;;;;;;;5.10;2.58;;;;;;;28.04;11.30;100768.81;4806943;29;20046;-81
2022/05/07 10:21:14;;;;;;;;;;;;;;;29.15;11.03;100750.44;4822694;29;20085;-78
2022/05/07 10:23:57;;;;;;;6.25;2.60;;;;;;;29.29;10.71;100657.47;4821704;29;19921;-80
2022/05/07 10:26:41;;;;;;;6.93;2.97;;;;;;;30.00;10.70;100747.88;4821587;29;20050;-79
2022/05/07 10:29:24;;;;;;;5.57;2.60;;;;;;;29.33;10.77;100751.91;4794327;29;20042;-78
2022/05/07 10:32:01;;;;;;;5.50;2.33;;;;;;;28.31;11.38;100746.53;4822208;29;20713;-79
2022/05/07 10:34:27;;;;;;;7.10;2.20;;;;;;;27.40;11.96;100745.34;4822438;29;20050;-80
2022/05/07 10:37:11;;;;;;;4.57;2.50;;;;;;;26.70;11.98;100665.16;4841278;29;20086;-80
2022/05/07 10:39:50;;;;;;;7.40;2.50;;;;;;;26.59;12.53;100723.69;4836161;29;20053;-77
2022/05/07 10:42:22;;;;;;;3.53;2.47;;;;;;;25.75;12.77;100691.28;4823776;29;20050;-77
2022/05/07 10:45:25;;;;;;;4.32;2.70;;;;;;;25.13;13.15;100728.53;4831684;29;20050;-78
2022/05/07 10:48:15;;;;;;;3.95;2.70;;;;;;;24.59;13.20;100698.56;4824089;29;20050;-80
2022/05/07 10:50:52;;;;;;;5.07;2.25;;;;;;;23.43;13.86;100575.13;4812977;29;20150;-79
2022/05/07 10:53:20;;;;;;;5.07;2.30;;;;;;;23.82;13.62;100612.16;4807075;29;20049;-79
2022/05/07 10:56:00;;;;;;;8.30;2.70;;;;;;;24.87;13.64;100754.78;4805770;29;20050;-81
2022/05/07 10:58:30;;;;;;;10.15;3.15;;;;;;;23.73;13.43;100558.53;4821791;29;20046;-79
2022/05/07 11:00:58;;;;;;;5.32;2.47;;;;;;;24.35;13.75;100716.66;4824473;29;20547;-79
2022/05/07 11:03:36;;;;;;;3.33;2.17;;;;;;;24.06;14.14;100695.97;4824042;29;20045;-80
2022/05/07 11:06:05;;;;;;;5.75;2.30;;;;;;;23.86;14.39;100709.38;4824037;29;20308;-78
2022/05/07 11:08:31;;;;;;;5.03;2.40;;;;;;;24.05;14.53;100727.94;4807625;29;20065;-80
2022/05/07 11:11:10;;;;;;;6.80;3.63;;;;;;;23.60;14.66;100671.69;4840121;29;20078;-79
2022/05/07 11:13:55;;;;;;;4.00;2.70;;;;;;;23.40;14.87;100728.41;4823210;29;20526;-79
2022/05/07 11:16:23;;;;;;;7.25;2.30;;;;;;;23.05;15.02;100722.97;4823846;29;20429;-79
2022/05/07 11:18:56;;;;;;;25.25;2.60;;;;;;;22.80;15.42;100710.81;4840742;29;20499;-79
2022/05/07 11:21:26;;;;;;;7.32;2.47;;;;;;;22.11;15.39;100651.97;4841077;29;20480;-81
2022/05/07 11:23:58;;;;;;;8.10;2.97;;;;;;;22.20;15.47;100678.06;4796673;29;20471;-81
2022/05/07 11:26:32;;;;;;;3.85;2.40;;;;;;;20.92;16.05;100517.47;4812120;29;20145;-78
2022/05/07 11:29:01;;;;;;;4.28;2.67;;;;;;;21.84;16.43;100699.91;4811679;29;20060;-76
2022/05/07 11:31:32;;;;;;;4.07;2.10;;;;;;;21.66;16.31;100669.75;4827227;29;20129;-79
2022/05/07 11:34:14;;;;;;;7.78;3.13;;;;;;;22.00;16.03;100694.84;4811469;29;20049;-78
2022/05/07 11:36:40;;;;;;;7.40;2.50;;;;;;;21.89;15.80;100658.19;4827037;29;20049;-79
2022/05/07 11:39:16;;;;;;;7.00;2.85;;;;;;;21.94;15.93;100656.22;4826863;29;20076;-80
2022/05/07 11:41:42;;;;;;;5.63;2.30;;;;;;;21.61;16.61;100627.59;4830231;29;20046;-78
2022/05/07 11:47:35;;;;;;;;;;;;;;;;;;;;;
2022/05/07 11:50:20;;;;;;;6.10;2.42;;;;;;;20.68;16.71;100498.13;4829755;29;20629;-78
2022/05/07 11:52:47;;;;;;;6.05;2.65;;;;;;;20.98;16.55;100562.19;4813798;29;20128;-78
2022/05/07 11:55:20;;;;;;;5.35;2.55;;;;;;;20.91;16.73;100505.16;4798700;29;20503;-76
2022/05/07 11:57:54;;;;;;;4.53;2.45;;;;;;;21.95;16.43;100650.00;4845307;29;20038;-78
2022/05/07 12:00:27;;;;;;;7.53;3.03;;;;;;;21.50;16.67;100545.09;4827867;29;20052;-79
2022/05/07 12:03:00;;;;;;;5.15;2.58;;;;;;;21.73;16.77;100625.34;4866456;29;20034;-78
2022/05/07 12:06:00;;;;;;;2.65;2.10;;;;;;;20.80;16.92;100473.88;4819436;29;20080;-79
2022/05/07 12:08:45;;;;;;;8.43;2.55;;;;;;;21.78;16.77;100636.59;4828658;29;20175;-83
2022/05/07 12:11:22;;;;;;;5.20;2.50;;;;;;;21.41;16.86;100566.63;4835131;29;20061;-82
2022/05/07 12:13:54;;;;;;;6.88;3.28;;;;;;;20.89;16.97;100526.41;4849356;29;20046;-82
2022/05/07 12:19:33;;;;;;;3.88;2.67;;;;;;;20.26;17.39;100460.13;4822858;29;20076;-81
2022/05/07 12:30:23;;;;;;;6.05;2.53;;;;;;;20.44;18.02;100585.41;4820118;29;20076;-80
2022/05/07 12:32:54;;;;;;;5.10;2.20;;;;;;;19.47;18.31;100448.03;4819173;29;20057;-82
2022/05/07 12:35:22;;;;;;;4.78;2.40;;;;;;;20.66;18.19;100648.03;4834342;29;20076;-83
2022/05/07 12:37:48;;;;;;;4.32;2.70;;;;;;;20.45;18.23;100614.41;4836435;29;20046;-80
2022/05/07 12:40:21;;;;;;;7.30;2.20;;;;;;;20.21;18.37;100573.03;4826478;29;20052;-80